sensor_id;sensor_type;location;lat;lon;timestamp;pressure;altitude;pressure_sealevel;temperature;humidity
20156;BME280;10238;49.556;10.956;2023-04-27T00:02:21;98467.19;;;5.03;100.00
20156;BME280;10238;49.556;10.956;2023-04-27T00:05:09;98459.41;;;5.01;100.00
20156;BME280;10238;49.556;10.956;2023-04-27T00:07:59;98459.41;;;5.01;100.00
20156;BME280;10238;49.556;10.956;2023-04-27T00:10:47;98456.03;;;4.99;100.00
20156;BME280;10238;49.556;10.956;2023-04-27T00:13:36;98456.03;;;4.99;100.00
20156;BME280;10238;49.556;10.956;2023-04-27T00:16:24;98452.44;;;5.00;100.00
20156;BME280;10238;49.556;10.956;2023-04-27T00:19:15;98450.75;;;4.99;100.00
20156;BME280;10238;49.556;10.956;2023-04-27T00:22:03;98449.09;;;4.98;100.00
20156;BME280;10238;49.556;10.956;2023-04-27T00:24:51;98452.44;;;5.00;100.00
20156;BME280;10238;49.556;10.956;2023-04-27T00:27:39;98450.28;;;5.05;100.00
20156;BME280;10238;49.556;10.956;2023-04-27T00:30:29;98438.31;;;5.01;100.00
20156;BME280;10238;49.556;10.956;2023-04-27T00:33:17;98438.31;;;5.01;100.00
20156;BME280;10238;49.556;10.956;2023-04-27T00:36:06;98434.72;;;5.02;100.00
20156;BME280;10238;49.556;10.956;2023-04-27T00:38:54;98438.44;;;5.00;100.00
20156;BME280;10238;49.556;10.956;2023-04-27T00:41:42;98436.03;;;4.97;100.00
20156;BME280;10238;49.556;10.956;2023-04-27T00:44:34;98433.53;;;4.95;100.00
20156;BME280;10238;49.556;10.956;2023-04-27T00:47:26;98437.13;;;4.94;100.00
20156;BME280;10238;49.556;10.956;2023-04-27T00:50:15;98433.75;;;4.92;100.00
20156;BME280;10238;49.556;10.956;2023-04-27T00:53:05;98433.63;;;4.94;100.00
20156;BME280;10238;49.556;10.956;2023-04-27T00:55:53;98431.97;;;4.93;100.00
20156;BME280;10238;49.556;10.956;2023-04-27T00:58:43;98431.13;;;4.92;100.00
20156;BME280;10238;49.556;10.956;2023-04-27T01:01:31;98428.72;;;4.89;100.00
20156;BME280;10238;49.556;10.956;2023-04-27T01:04:21;98426.22;;;4.88;100.00
20156;BME280;10238;49.556;10.956;2023-04-27T01:07:09;98425.34;;;4.87;100.00
20156;BME280;10238;49.556;10.956;2023-04-27T01:09:59;98428.09;;;4.86;100.00
20156;BME280;10238;49.556;10.956;2023-04-27T01:12:47;98427.28;;;4.85;100.00
20156;BME280;10238;49.556;10.956;2023-04-27T01:15:35;98429.19;;;4.83;100.00
20156;BME280;10238;49.556;10.956;2023-04-27T01:18:23;98433.72;;;4.81;100.00
20156;BME280;10238;49.556;10.956;2023-04-27T01:21:13;98431.81;;;4.83;100.00
20156;BME280;10238;49.556;10.956;2023-04-27T01:24:04;98431.09;;;4.81;100.00
20156;BME280;10238;49.556;10.956;2023-04-27T01:26:53;98432.78;;;4.82;100.00
20156;BME280;10238;49.556;10.956;2023-04-27T01:29:41;98441.75;;;4.80;100.00
20156;BME280;10238;49.556;10.956;2023-04-27T01:32:29;98439.22;;;4.78;100.00
20156;BME280;10238;49.556;10.956;2023-04-27T01:35:17;98438.53;;;4.76;100.00
20156;BME280;10238;49.556;10.956;2023-04-27T01:38:05;98444.00;;;4.73;100.00
20156;BME280;10238;49.556;10.956;2023-04-27T01:40:54;98444.13;;;4.72;100.00
20156;BME280;10238;49.556;10.956;2023-04-27T01:43:47;98442.34;;;4.72;100.00
20156;BME280;10238;49.556;10.956;2023-04-27T01:46:35;98438.97;;;4.70;100.00
20156;BME280;10238;49.556;10.956;2023-04-27T01:49:24;98438.97;;;4.70;100.00
20156;BME280;10238;49.556;10.956;2023-04-27T01:52:12;98440.88;;;4.68;100.00
20156;BME280;10238;49.556;10.956;2023-04-27T01:55:00;98438.47;;;4.65;100.00
20156;BME280;10238;49.556;10.956;2023-04-27T01:57:50;98443.75;;;4.65;100.00
20156;BME280;10238;49.556;10.956;2023-04-27T02:00:38;98443.84;;;4.64;100.00
20156;BME280;10238;49.556;10.956;2023-04-27T02:03:26;98443.03;;;4.63;100.00
20156;BME280;10238;49.556;10.956;2023-04-27T02:06:14;98448.31;;;4.63;100.00
20156;BME280;10238;49.556;10.956;2023-04-27T02:09:03;98444.09;;;4.61;100.00
20156;BME280;10238;49.556;10.956;2023-04-27T02:11:51;98436.34;;;4.59;100.00
20156;BME280;10238;49.556;10.956;2023-04-27T02:14:40;98434.63;;;4.58;100.00
20156;BME280;10238;49.556;10.956;2023-04-27T02:17:28;98441.84;;;4.56;100.00
20156;BME280;10238;49.556;10.956;2023-04-27T02:20:18;98440.25;;;4.53;100.00
20156;BME280;10238;49.556;10.956;2023-04-27T02:23:06;98435.94;;;4.53;100.00
20156;BME280;10238;49.556;10.956;2023-04-27T02:25:54;98437.84;;;4.50;100.00
20156;BME280;10238;49.556;10.956;2023-04-27T02:28:42;98446.69;;;4.49;100.00
20156;BME280;10238;49.556;10.956;2023-04-27T02:31:31;98442.63;;;4.45;100.00
20156;BME280;10238;49.556;10.956;2023-04-27T02:34:20;98448.94;;;4.43;100.00
20156;BME280;10238;49.556;10.956;2023-04-27T02:37:08;98454.34;;;4.41;100.00
20156;BME280;10238;49.556;10.956;2023-04-27T02:39:56;98455.38;;;4.39;100.00
20156;BME280;10238;49.556;10.956;2023-04-27T02:42:44;98452.75;;;4.39;100.00
20156;BME280;10238;49.556;10.956;2023-04-27T02:45:36;98448.47;;;4.38;100.00
20156;BME280;10238;49.556;10.956;2023-04-27T02:48:26;98453.09;;;4.34;100.00
20156;BME280;10238;49.556;10.956;2023-04-27T02:51:14;98456.81;;;4.32;100.00
20156;BME280;10238;49.556;10.956;2023-04-27T02:54:02;98454.28;;;4.30;100.00
20156;BME280;10238;49.556;10.956;2023-04-27T02:56:50;98464.06;;;4.28;100.00
20156;BME280;10238;49.556;10.956;2023-04-27T02:59:38;98458.00;;;4.28;100.00
20156;BME280;10238;49.556;10.956;2023-04-27T03:02:26;98466.81;;;4.27;100.00
20156;BME280;10238;49.556;10.956;2023-04-27T03:05:15;98472.34;;;4.24;100.00
20156;BME280;10238;49.556;10.956;2023-04-27T03:08:04;98464.66;;;4.21;100.00
20156;BME280;10238;49.556;10.956;2023-04-27T03:10:52;98460.56;;;4.17;100.00
20156;BME280;10238;49.556;10.956;2023-04-27T03:13:40;98458.88;;;4.16;100.00
20156;BME280;10238;49.556;10.956;2023-04-27T03:16:30;98464.38;;;4.13;100.00
20156;BME280;10238;49.556;10.956;2023-04-27T03:19:18;98469.84;;;4.10;100.00
20156;BME280;10238;49.556;10.956;2023-04-27T03:22:07;98473.44;;;4.09;100.00
20156;BME280;10238;49.556;10.956;2023-04-27T03:24:55;98472.59;;;4.08;100.00
20156;BME280;10238;49.556;10.956;2023-04-27T03:27:43;98469.13;;;4.08;100.00
20156;BME280;10238;49.556;10.956;2023-04-27T03:30:31;98467.44;;;4.07;100.00
20156;BME280;10238;49.556;10.956;2023-04-27T03:33:19;98473.66;;;4.06;100.00
20156;BME280;10238;49.556;10.956;2023-04-27T03:36:08;98476.28;;;4.06;100.00
20156;BME280;10238;49.556;10.956;2023-04-27T03:38:58;98480.72;;;4.05;100.00
20156;BME280;10238;49.556;10.956;2023-04-27T03:41:46;98482.53;;;4.05;100.00
20156;BME280;10238;49.556;10.956;2023-04-27T03:44:34;98484.19;;;4.06;100.00
20156;BME280;10238;49.556;10.956;2023-04-27T03:47:22;98488.50;;;4.07;100.00
20156;BME280;10238;49.556;10.956;2023-04-27T03:50:10;98489.44;;;4.06;100.00
20156;BME280;10238;49.556;10.956;2023-04-27T03:52:58;98492.06;;;4.06;100.00
20156;BME280;10238;49.556;10.956;2023-04-27T03:55:48;98490.91;;;4.10;100.00
20156;BME280;10238;49.556;10.956;2023-04-27T03:58:36;98488.38;;;4.08;100.00
20156;BME280;10238;49.556;10.956;2023-04-27T04:01:24;98493.63;;;4.08;100.00
20156;BME280;10238;49.556;10.956;2023-04-27T04:04:12;98494.59;;;4.07;100.00
20156;BME280;10238;49.556;10.956;2023-04-27T04:07:01;98496.38;;;4.07;100.00
20156;BME280;10238;49.556;10.956;2023-04-27T04:09:49;98493.84;;;4.05;100.00
20156;BME280;10238;49.556;10.956;2023-04-27T04:12:38;98500.81;;;4.06;100.00
20156;BME280;10238;49.556;10.956;2023-04-27T04:15:26;98490.28;;;4.06;100.00
20156;BME280;10238;49.556;10.956;2023-04-27T04:18:14;98486.81;;;4.06;100.00
20156;BME280;10238;49.556;10.956;2023-04-27T04:21:02;98483.22;;;4.07;100.00
20156;BME280;10238;49.556;10.956;2023-04-27T04:23:50;98480.59;;;4.07;100.00
20156;BME280;10238;49.556;10.956;2023-04-27T04:26:38;98485.53;;;4.11;100.00
20156;BME280;10238;49.556;10.956;2023-04-27T04:29:28;98485.84;;;4.07;100.00
20156;BME280;10238;49.556;10.956;2023-04-27T04:32:18;98483.13;;;4.08;100.00
20156;BME280;10238;49.556;10.956;2023-04-27T04:35:08;98487.31;;;4.11;100.00
20156;BME280;10238;49.556;10.956;2023-04-27T04:37:57;98493.41;;;4.11;100.00
20156;BME280;10238;49.556;10.956;2023-04-27T04:40:47;98491.41;;;4.15;100.00
20156;BME280;10238;49.556;10.956;2023-04-27T04:43:36;98488.66;;;4.16;100.00
20156;BME280;10238;49.556;10.956;2023-04-27T04:46:27;98495.28;;;4.22;100.00
20156;BME280;10238;49.556;10.956;2023-04-27T04:49:19;98496.94;;;4.23;100.00
20156;BME280;10238;49.556;10.956;2023-04-27T04:52:07;98501.00;;;4.27;100.00
20156;BME280;10238;49.556;10.956;2023-04-27T04:55:19;98501.31;;;4.35;100.00
20156;BME280;10238;49.556;10.956;2023-04-27T04:58:11;98512.47;;;4.38;100.00
20156;BME280;10238;49.556;10.956;2023-04-27T05:00:59;98513.28;;;4.39;100.00
20156;BME280;10238;49.556;10.956;2023-04-27T05:03:49;98515.81;;;4.40;100.00
20156;BME280;10238;49.556;10.956;2023-04-27T05:06:37;98515.47;;;4.45;100.00
20156;BME280;10238;49.556;10.956;2023-04-27T05:09:25;98518.50;;;4.52;100.00
20156;BME280;10238;49.556;10.956;2023-04-27T05:12:13;98523.19;;;4.59;100.00
20156;BME280;10238;49.556;10.956;2023-04-27T05:15:01;98519.50;;;4.62;100.00
20156;BME280;10238;49.556;10.956;2023-04-27T05:17:51;98528.09;;;4.64;100.00
20156;BME280;10238;49.556;10.956;2023-04-27T05:20:41;98522.50;;;4.68;100.00
20156;BME280;10238;49.556;10.956;2023-04-27T05:23:29;98532.97;;;4.81;100.00
20156;BME280;10238;49.556;10.956;2023-04-27T05:26:17;98537.66;;;4.88;100.00
20156;BME280;10238;49.556;10.956;2023-04-27T05:29:05;98537.22;;;4.94;100.00
20156;BME280;10238;49.556;10.956;2023-04-27T05:31:53;98541.75;;;5.03;100.00
20156;BME280;10238;49.556;10.956;2023-04-27T05:34:42;98541.28;;;5.09;100.00
20156;BME280;10238;49.556;10.956;2023-04-27T05:37:35;98541.06;;;5.12;100.00
20156;BME280;10238;49.556;10.956;2023-04-27T05:40:22;98549.72;;;5.14;100.00
20156;BME280;10238;49.556;10.956;2023-04-27T05:43:11;98543.97;;;5.20;100.00
20156;BME280;10238;49.556;10.956;2023-04-27T05:45:58;98541.34;;;5.31;100.00
20156;BME280;10238;49.556;10.956;2023-04-27T05:48:46;98546.16;;;5.37;100.00
20156;BME280;10238;49.556;10.956;2023-04-27T05:51:34;98550.22;;;5.41;100.00
20156;BME280;10238;49.556;10.956;2023-04-27T05:54:25;98550.25;;;5.52;100.00
20156;BME280;10238;49.556;10.956;2023-04-27T05:57:13;98552.88;;;5.63;100.00
20156;BME280;10238;49.556;10.956;2023-04-27T06:00:02;98550.38;;;5.73;100.00
20156;BME280;10238;49.556;10.956;2023-04-27T06:02:54;98539.97;;;5.82;100.00
20156;BME280;10238;49.556;10.956;2023-04-27T06:05:43;98546.66;;;5.97;100.00
20156;BME280;10238;49.556;10.956;2023-04-27T06:08:31;98544.97;;;6.07;100.00
20156;BME280;10238;49.556;10.956;2023-04-27T06:11:22;98541.38;;;6.19;100.00
20156;BME280;10238;49.556;10.956;2023-04-27T06:14:10;98543.03;;;6.31;100.00
20156;BME280;10238;49.556;10.956;2023-04-27T06:16:58;98543.59;;;6.46;100.00
20156;BME280;10238;49.556;10.956;2023-04-27T06:19:46;98540.31;;;6.53;100.00
20156;BME280;10238;49.556;10.956;2023-04-27T06:22:34;98541.50;;;6.60;100.00
20156;BME280;10238;49.556;10.956;2023-04-27T06:25:22;98549.97;;;6.75;100.00
20156;BME280;10238;49.556;10.956;2023-04-27T06:28:14;98544.25;;;6.91;100.00
20156;BME280;10238;49.556;10.956;2023-04-27T06:31:02;98535.28;;;7.03;100.00
20156;BME280;10238;49.556;10.956;2023-04-27T06:33:55;98548.56;;;7.12;100.00
20156;BME280;10238;49.556;10.956;2023-04-27T06:36:43;98548.75;;;7.00;100.00
20156;BME280;10238;49.556;10.956;2023-04-27T06:39:31;98549.22;;;7.05;100.00
20156;BME280;10238;49.556;10.956;2023-04-27T06:42:19;98551.88;;;7.05;100.00
20156;BME280;10238;49.556;10.956;2023-04-27T06:45:09;98551.53;;;7.19;100.00
20156;BME280;10238;49.556;10.956;2023-04-27T06:47:57;98547.22;;;7.38;100.00
20156;BME280;10238;49.556;10.956;2023-04-27T06:50:46;98548.50;;;7.44;100.00
20156;BME280;10238;49.556;10.956;2023-04-27T06:53:34;98541.09;;;7.68;100.00
20156;BME280;10238;49.556;10.956;2023-04-27T06:56:22;98544.09;;;7.54;100.00
20156;BME280;10238;49.556;10.956;2023-04-27T06:59:10;98543.88;;;7.36;100.00
20156;BME280;10238;49.556;10.956;2023-04-27T07:02:00;98544.28;;;7.62;100.00
20156;BME280;10238;49.556;10.956;2023-04-27T07:04:47;98548.19;;;7.88;100.00
20156;BME280;10238;49.556;10.956;2023-04-27T07:07:37;98539.59;;;8.05;100.00
20156;BME280;10238;49.556;10.956;2023-04-27T07:10:26;98540.25;;;8.27;100.00
20156;BME280;10238;49.556;10.956;2023-04-27T07:13:14;98539.03;;;8.50;100.00
20156;BME280;10238;49.556;10.956;2023-04-27T07:16:02;98542.25;;;8.73;100.00
20156;BME280;10238;49.556;10.956;2023-04-27T07:18:54;98530.28;;;8.88;100.00
20156;BME280;10238;49.556;10.956;2023-04-27T07:21:42;98536.41;;;9.08;100.00
20156;BME280;10238;49.556;10.956;2023-04-27T07:24:31;98536.81;;;9.22;100.00
20156;BME280;10238;49.556;10.956;2023-04-27T07:27:19;98538.19;;;9.26;100.00
20156;BME280;10238;49.556;10.956;2023-04-27T07:30:07;98536.78;;;9.41;100.00
20156;BME280;10238;49.556;10.956;2023-04-27T07:32:58;98549.44;;;9.66;100.00
20156;BME280;10238;49.556;10.956;2023-04-27T07:35:48;98547.50;;;9.95;100.00
20156;BME280;10238;49.556;10.956;2023-04-27T07:38:36;98549.81;;;10.17;100.00
20156;BME280;10238;49.556;10.956;2023-04-27T07:41:25;98544.25;;;10.38;100.00
20156;BME280;10238;49.556;10.956;2023-04-27T07:44:16;98544.59;;;10.52;95.54
20156;BME280;10238;49.556;10.956;2023-04-27T07:47:04;98546.72;;;10.66;97.08
20156;BME280;10238;49.556;10.956;2023-04-27T07:49:54;98543.31;;;10.91;95.74
20156;BME280;10238;49.556;10.956;2023-04-27T07:52:45;98535.34;;;10.91;92.83
20156;BME280;10238;49.556;10.956;2023-04-27T07:55:37;98537.50;;;11.31;95.78
20156;BME280;10238;49.556;10.956;2023-04-27T07:58:26;98530.47;;;11.65;91.87
20156;BME280;10238;49.556;10.956;2023-04-27T08:01:14;98537.84;;;11.79;90.69
20156;BME280;10238;49.556;10.956;2023-04-27T08:04:04;98530.19;;;12.10;89.04
20156;BME280;10238;49.556;10.956;2023-04-27T08:06:54;98531.63;;;12.38;88.14
20156;BME280;10238;49.556;10.956;2023-04-27T08:09:44;98530.06;;;12.69;87.36
20156;BME280;10238;49.556;10.956;2023-04-27T08:12:32;98537.06;;;12.94;86.23
20156;BME280;10238;49.556;10.956;2023-04-27T08:15:20;98535.81;;;13.22;88.82
20156;BME280;10238;49.556;10.956;2023-04-27T08:18:08;98540.13;;;13.47;87.86
20156;BME280;10238;49.556;10.956;2023-04-27T08:20:56;98531.13;;;13.32;79.84
20156;BME280;10238;49.556;10.956;2023-04-27T08:23:44;98534.16;;;13.21;75.64
20156;BME280;10238;49.556;10.956;2023-04-27T08:26:33;98534.47;;;13.34;78.18
20156;BME280;10238;49.556;10.956;2023-04-27T08:29:21;98535.38;;;13.89;83.49
20156;BME280;10238;49.556;10.956;2023-04-27T08:32:14;98527.13;;;14.23;72.79
20156;BME280;10238;49.556;10.956;2023-04-27T08:35:02;98525.91;;;14.33;79.41
20156;BME280;10238;49.556;10.956;2023-04-27T08:37:50;98518.94;;;14.85;78.66
20156;BME280;10238;49.556;10.956;2023-04-27T08:40:42;98523.25;;;15.40;80.00
20156;BME280;10238;49.556;10.956;2023-04-27T08:43:35;98522.97;;;16.01;79.97
20156;BME280;10238;49.556;10.956;2023-04-27T08:46:24;98519.72;;;16.34;74.19
20156;BME280;10238;49.556;10.956;2023-04-27T08:49:13;98512.56;;;16.41;75.50
20156;BME280;10238;49.556;10.956;2023-04-27T08:52:03;98510.19;;;16.82;74.99
20156;BME280;10238;49.556;10.956;2023-04-27T08:54:52;98500.69;;;17.43;74.10
20156;BME280;10238;49.556;10.956;2023-04-27T08:57:52;98501.63;;;17.84;70.01
20156;BME280;10238;49.556;10.956;2023-04-27T09:00:42;98510.28;;;17.52;57.07
20156;BME280;10238;49.556;10.956;2023-04-27T09:03:31;98507.81;;;18.18;69.17
20156;BME280;10238;49.556;10.956;2023-04-27T09:06:29;98496.91;;;18.67;66.57
20156;BME280;10238;49.556;10.956;2023-04-27T09:09:22;98495.16;;;18.53;53.61
20156;BME280;10238;49.556;10.956;2023-04-27T09:12:17;98497.25;;;18.57;64.66
20156;BME280;10238;49.556;10.956;2023-04-27T09:15:10;98497.06;;;19.52;65.59
20156;BME280;10238;49.556;10.956;2023-04-27T09:18:01;98489.06;;;20.35;62.25
20156;BME280;10238;49.556;10.956;2023-04-27T09:20:51;98494.75;;;19.68;53.82
20156;BME280;10238;49.556;10.956;2023-04-27T09:23:41;98478.31;;;20.15;61.51
20156;BME280;10238;49.556;10.956;2023-04-27T09:26:29;98473.06;;;20.33;51.60
20156;BME280;10238;49.556;10.956;2023-04-27T09:29:17;98472.75;;;20.61;57.51
20156;BME280;10238;49.556;10.956;2023-04-27T09:32:17;98473.63;;;19.33;44.97
20156;BME280;10238;49.556;10.956;2023-04-27T09:35:19;98461.72;;;20.12;60.56
20156;BME280;10238;49.556;10.956;2023-04-27T09:38:07;98463.84;;;21.54;57.55
20156;BME280;10238;49.556;10.956;2023-04-27T09:40:55;98454.13;;;21.64;47.10
20156;BME280;10238;49.556;10.956;2023-04-27T09:43:45;98453.63;;;21.98;55.69
20156;BME280;10238;49.556;10.956;2023-04-27T09:46:34;98454.81;;;23.04;51.54
20156;BME280;10238;49.556;10.956;2023-04-27T09:49:23;98453.88;;;23.10;51.30
20156;BME280;10238;49.556;10.956;2023-04-27T09:52:14;98447.59;;;23.27;51.29
20156;BME280;10238;49.556;10.956;2023-04-27T09:55:08;98443.38;;;23.78;50.73
20156;BME280;10238;49.556;10.956;2023-04-27T09:58:08;98441.59;;;23.72;50.36
20156;BME280;10238;49.556;10.956;2023-04-27T10:01:09;98450.81;;;22.77;46.42
20156;BME280;10238;49.556;10.956;2023-04-27T10:04:17;98441.13;;;23.40;46.48
20156;BME280;10238;49.556;10.956;2023-04-27T10:07:11;98439.63;;;22.37;46.96
20156;BME280;10238;49.556;10.956;2023-04-27T10:10:02;98452.41;;;21.27;48.18
20156;BME280;10238;49.556;10.956;2023-04-27T10:12:59;98445.00;;;22.08;44.12
20156;BME280;10238;49.556;10.956;2023-04-27T10:15:51;98438.16;;;23.30;51.63
20156;BME280;10238;49.556;10.956;2023-04-27T10:18:50;98439.25;;;22.52;46.29
20156;BME280;10238;49.556;10.956;2023-04-27T10:21:58;98433.69;;;23.59;51.04
20156;BME280;10238;49.556;10.956;2023-04-27T10:24:49;98420.56;;;24.25;49.53
20156;BME280;10238;49.556;10.956;2023-04-27T10:27:39;98416.53;;;24.67;47.77
20156;BME280;10238;49.556;10.956;2023-04-27T10:30:32;98423.28;;;24.92;46.20
20156;BME280;10238;49.556;10.956;2023-04-27T10:33:21;98433.91;;;23.46;47.01
20156;BME280;10238;49.556;10.956;2023-04-27T10:36:14;98439.72;;;21.52;46.82
20156;BME280;10238;49.556;10.956;2023-04-27T10:39:02;98423.66;;;23.71;47.10
20156;BME280;10238;49.556;10.956;2023-04-27T10:42:00;98415.91;;;24.37;42.26
20156;BME280;10238;49.556;10.956;2023-04-27T10:44:55;98422.09;;;23.28;38.29
20156;BME280;10238;49.556;10.956;2023-04-27T10:47:44;98434.06;;;21.78;41.87
20156;BME280;10238;49.556;10.956;2023-04-27T10:50:33;98425.41;;;23.31;46.67
20156;BME280;10238;49.556;10.956;2023-04-27T10:53:20;98414.09;;;24.54;49.68
20156;BME280;10238;49.556;10.956;2023-04-27T10:56:10;98414.28;;;24.36;42.20
20156;BME280;10238;49.556;10.956;2023-04-27T10:59:01;98406.03;;;24.59;48.47
20156;BME280;10238;49.556;10.956;2023-04-27T11:01:51;98401.75;;;25.19;43.61
20156;BME280;10238;49.556;10.956;2023-04-27T11:04:39;98410.31;;;24.83;45.44
20156;BME280;10238;49.556;10.956;2023-04-27T11:07:28;98414.00;;;24.49;45.96
20156;BME280;10238;49.556;10.956;2023-04-27T11:10:18;98404.28;;;24.53;45.75
20156;BME280;10238;49.556;10.956;2023-04-27T11:13:09;98408.53;;;25.05;46.31
20156;BME280;10238;49.556;10.956;2023-04-27T11:15:58;98414.22;;;25.32;47.22
20156;BME280;10238;49.556;10.956;2023-04-27T11:18:48;98411.25;;;25.66;43.64
20156;BME280;10238;49.556;10.956;2023-04-27T11:21:36;98412.53;;;25.80;45.54
20156;BME280;10238;49.556;10.956;2023-04-27T11:24:24;98399.94;;;26.12;44.26
20156;BME280;10238;49.556;10.956;2023-04-27T11:27:12;98404.53;;;25.74;41.00
20156;BME280;10238;49.556;10.956;2023-04-27T11:30:00;98400.44;;;26.09;43.25
20156;BME280;10238;49.556;10.956;2023-04-27T11:32:48;98398.34;;;25.12;39.68
20156;BME280;10238;49.556;10.956;2023-04-27T11:35:38;98397.78;;;25.60;44.42
20156;BME280;10238;49.556;10.956;2023-04-27T11:38:32;98404.03;;;25.27;39.09
20156;BME280;10238;49.556;10.956;2023-04-27T11:41:21;98414.81;;;24.49;46.34
20156;BME280;10238;49.556;10.956;2023-04-27T11:44:10;98407.94;;;25.48;39.84
20156;BME280;10238;49.556;10.956;2023-04-27T11:46:58;98405.03;;;25.04;45.15
20156;BME280;10238;49.556;10.956;2023-04-27T11:49:48;98399.31;;;24.10;41.83
20156;BME280;10238;49.556;10.956;2023-04-27T11:52:39;98397.44;;;25.23;46.37
20156;BME280;10238;49.556;10.956;2023-04-27T11:55:27;98402.75;;;24.06;39.86
20156;BME280;10238;49.556;10.956;2023-04-27T11:58:15;98402.69;;;25.41;45.75
20156;BME280;10238;49.556;10.956;2023-04-27T12:01:03;98397.47;;;26.54;44.45
20156;BME280;10238;49.556;10.956;2023-04-27T12:03:52;98392.44;;;27.20;41.94
20156;BME280;10238;49.556;10.956;2023-04-27T12:06:41;98388.03;;;27.46;39.86
20156;BME280;10238;49.556;10.956;2023-04-27T12:09:30;98388.47;;;27.70;39.52
20156;BME280;10238;49.556;10.956;2023-04-27T12:12:19;98385.28;;;27.83;40.19
20156;BME280;10238;49.556;10.956;2023-04-27T12:15:08;98379.94;;;27.98;41.55
20156;BME280;10238;49.556;10.956;2023-04-27T12:17:56;98378.13;;;27.08;33.56
20156;BME280;10238;49.556;10.956;2023-04-27T12:20:44;98379.78;;;26.13;38.32
20156;BME280;10238;49.556;10.956;2023-04-27T12:23:32;98376.63;;;26.21;42.28
20156;BME280;10238;49.556;10.956;2023-04-27T12:26:21;98375.97;;;27.10;42.40
20156;BME280;10238;49.556;10.956;2023-04-27T12:29:09;98375.25;;;27.57;40.20
20156;BME280;10238;49.556;10.956;2023-04-27T12:31:58;98382.75;;;27.71;41.07
20156;BME280;10238;49.556;10.956;2023-04-27T12:34:46;98376.94;;;27.63;37.80
20156;BME280;10238;49.556;10.956;2023-04-27T12:37:35;98377.69;;;27.21;35.10
20156;BME280;10238;49.556;10.956;2023-04-27T12:40:23;98383.78;;;25.89;35.20
20156;BME280;10238;49.556;10.956;2023-04-27T12:43:13;98383.03;;;25.39;35.87
20156;BME280;10238;49.556;10.956;2023-04-27T12:46:01;98391.81;;;24.29;41.45
20156;BME280;10238;49.556;10.956;2023-04-27T12:48:49;98379.97;;;26.07;41.83
20156;BME280;10238;49.556;10.956;2023-04-27T12:51:37;98382.16;;;26.74;41.35
20156;BME280;10238;49.556;10.956;2023-04-27T12:54:26;98372.69;;;27.77;39.84
20156;BME280;10238;49.556;10.956;2023-04-27T12:57:14;98371.16;;;27.91;40.64
20156;BME280;10238;49.556;10.956;2023-04-27T13:00:05;98375.09;;;25.21;38.07
20156;BME280;10238;49.556;10.956;2023-04-27T13:02:55;98374.16;;;25.82;38.18
20156;BME280;10238;49.556;10.956;2023-04-27T13:05:44;98380.13;;;25.62;37.00
20156;BME280;10238;49.556;10.956;2023-04-27T13:08:32;98376.75;;;26.10;41.21
20156;BME280;10238;49.556;10.956;2023-04-27T13:11:20;98380.75;;;25.86;35.17
20156;BME280;10238;49.556;10.956;2023-04-27T13:14:08;98368.81;;;25.70;34.61
20156;BME280;10238;49.556;10.956;2023-04-27T13:17:00;98379.31;;;25.45;40.54
20156;BME280;10238;49.556;10.956;2023-04-27T13:19:48;98364.78;;;25.56;34.63
20156;BME280;10238;49.556;10.956;2023-04-27T13:22:36;98369.06;;;26.71;40.94
20156;BME280;10238;49.556;10.956;2023-04-27T13:25:26;98361.72;;;27.72;39.81
20156;BME280;10238;49.556;10.956;2023-04-27T13:28:14;98346.81;;;27.89;36.85
20156;BME280;10238;49.556;10.956;2023-04-27T13:31:03;98346.63;;;28.06;41.55
20156;BME280;10238;49.556;10.956;2023-04-27T13:33:53;98348.41;;;27.44;39.59
20156;BME280;10238;49.556;10.956;2023-04-27T13:36:41;98354.72;;;25.40;38.26
20156;BME280;10238;49.556;10.956;2023-04-27T13:39:29;98346.31;;;25.58;41.69
20156;BME280;10238;49.556;10.956;2023-04-27T13:42:18;98335.41;;;26.92;41.32
20156;BME280;10238;49.556;10.956;2023-04-27T13:45:08;98335.78;;;27.33;36.41
20156;BME280;10238;49.556;10.956;2023-04-27T13:47:56;98331.97;;;27.80;41.07
20156;BME280;10238;49.556;10.956;2023-04-27T13:50:45;98326.63;;;27.95;38.83
20156;BME280;10238;49.556;10.956;2023-04-27T13:53:32;98327.19;;;26.61;34.89
20156;BME280;10238;49.556;10.956;2023-04-27T13:56:20;98321.03;;;26.22;34.38
20156;BME280;10238;49.556;10.956;2023-04-27T13:59:08;98330.66;;;26.30;40.04
20156;BME280;10238;49.556;10.956;2023-04-27T14:01:56;98328.75;;;26.78;40.35
20156;BME280;10238;49.556;10.956;2023-04-27T14:04:44;98330.38;;;26.79;35.55
20156;BME280;10238;49.556;10.956;2023-04-27T14:07:34;98332.00;;;27.07;40.39
20156;BME280;10238;49.556;10.956;2023-04-27T14:10:22;98318.47;;;27.22;36.19
20156;BME280;10238;49.556;10.956;2023-04-27T14:13:10;98318.78;;;27.25;39.13
20156;BME280;10238;49.556;10.956;2023-04-27T14:15:58;98319.84;;;25.37;33.75
20156;BME280;10238;49.556;10.956;2023-04-27T14:18:46;98320.03;;;25.47;38.75
20156;BME280;10238;49.556;10.956;2023-04-27T14:21:34;98324.72;;;25.35;40.85
20156;BME280;10238;49.556;10.956;2023-04-27T14:24:24;98323.72;;;25.79;41.58
20156;BME280;10238;49.556;10.956;2023-04-27T14:27:13;98310.66;;;25.98;40.09
20156;BME280;10238;49.556;10.956;2023-04-27T14:30:02;98318.03;;;25.26;39.94
20156;BME280;10238;49.556;10.956;2023-04-27T14:32:50;98317.84;;;26.09;42.70
20156;BME280;10238;49.556;10.956;2023-04-27T14:35:38;98312.97;;;26.59;43.34
20156;BME280;10238;49.556;10.956;2023-04-27T14:38:27;98315.63;;;26.75;42.82
20156;BME280;10238;49.556;10.956;2023-04-27T14:41:17;98310.84;;;26.13;33.80
20156;BME280;10238;49.556;10.956;2023-04-27T14:44:06;98317.69;;;25.56;39.53
20156;BME280;10238;49.556;10.956;2023-04-27T14:46:54;98318.22;;;25.96;41.41